Terminal Aerodrome Forecast
Issued by NWS

Home | Current Version | Previous Version | Text Only | Print | Product List | Glossary On
Versions: 1 2 3 4 5 6 7 8 9 10 11 12 13 14 15 16 17 18 19 20 21 22 23
347
FTUS45 KGJT 241120
TAFMTJ
TAF
KMTJ 241120Z 2412/2512 12006KT P6SM VCTS FEW080CB SCT100
      TEMPO 2412/2413 -TSRA
     FM241500 31004KT P6SM SCT120
     FM241800 29005KT P6SM SCT080 SCT120
     FM250200 09004KT P6SM FEW250=

USA.gov is the U.S. government's official web portal to all federal, state and local government web resources and services.